Onizuka AFB, California
Current Conditions -  °F | °C
As of 8:56 AM on Sunday 23 Nov 2014 (Local Time) from KNUQ Reporting Station
Clear Clear  
Wind Chill: 56°   Ceiling: Unl
Heat Index: 56°   Visibility: 10mi
Dew Point: 49°   Wind: 6mph
Humidity: 77%   Direction: 280°W
Pressure: 30.34"   Gusts: NA
Location:  37.3688°N, 122.035°W
Report Text: KNUQ 231656Z AUTO 28005KT 10SM CLR 13/09 A3034 RMK AO2 SLP275 T01330094 TSNO
Loading
Personal Weather Stations






























Interactive Weather Map New forecast layout! Learn more

10-Day Weather Forecast

Advertisements
Track Severe Weather on mobile